BTK6137 WAAA-WARR
Flight info
| Callsign | BTK6137 |
|---|---|
| Flight time | N/A |
| Altitude | 35000 |
| Route | ENDOG W32 SUSIL W32N KOLTA |
| Aircraft | A320/M-SDE3FGHIRWY/LB1 |
Departure
| Time | N/A |
|---|---|
| Airport | Sultan Hasanuddin International Airport (WAAA) |
Arrival
| Time | 2026-04-30 09:44 |
|---|---|
| Airport | Juanda International Airport (WARR) |
| Time | Latitude | Longitude | Altitude | Speed | Heading |
|---|---|---|---|---|---|
| 2026-04-30 08:41 | -5.24879 | 118.57699 | 19959 ft | 419 kts | 244° |
| 2026-04-30 08:41 | -5.26108 | 118.55031 | 20356 ft | 422 kts | 244° |
| 2026-04-30 08:41 | -5.27340 | 118.52350 | 20738 ft | 424 kts | 244° |
| 2026-04-30 08:41 | -5.28578 | 118.49646 | 21111 ft | 427 kts | 244° |
| 2026-04-30 08:42 | -5.29816 | 118.46933 | 21469 ft | 429 kts | 244° |
| 2026-04-30 08:42 | -5.31062 | 118.44198 | 21819 ft | 431 kts | 244° |
| 2026-04-30 08:42 | -5.32319 | 118.41448 | 22165 ft | 434 kts | 244° |
| 2026-04-30 08:42 | -5.33585 | 118.38682 | 22507 ft | 437 kts | 244° |
| 2026-04-30 08:43 | -5.34854 | 118.35910 | 22838 ft | 439 kts | 244° |
| 2026-04-30 08:43 | -5.36132 | 118.33122 | 23158 ft | 441 kts | 244° |
| 2026-04-30 08:43 | -5.37421 | 118.30313 | 23471 ft | 444 kts | 244° |
| 2026-04-30 08:43 | -5.38697 | 118.27523 | 23770 ft | 446 kts | 244° |
| 2026-04-30 08:44 | -5.39995 | 118.24683 | 24068 ft | 448 kts | 244° |
| 2026-04-30 08:44 | -5.41298 | 118.21832 | 24358 ft | 450 kts | 244° |
| 2026-04-30 08:44 | -5.42608 | 118.18969 | 24633 ft | 452 kts | 244° |
| 2026-04-30 08:44 | -5.43923 | 118.16097 | 24915 ft | 454 kts | 244° |
| 2026-04-30 08:45 | -5.45249 | 118.13199 | 25200 ft | 456 kts | 244° |
| 2026-04-30 08:45 | -5.46576 | 118.10301 | 25471 ft | 458 kts | 244° |
| 2026-04-30 08:45 | -5.47910 | 118.07389 | 25733 ft | 460 kts | 244° |
| 2026-04-30 08:45 | -5.49248 | 118.04467 | 25982 ft | 462 kts | 244° |
| 2026-04-30 08:46 | -5.50592 | 118.01526 | 26236 ft | 464 kts | 244° |
| 2026-04-30 08:46 | -5.50756 | 118.01166 | 26269 ft | 464 kts | 244° |
| 2026-04-30 08:46 | -5.51912 | 117.98627 | 26499 ft | 465 kts | 244° |
| 2026-04-30 08:46 | -5.53260 | 117.95663 | 26739 ft | 468 kts | 244° |
| 2026-04-30 08:47 | -5.54616 | 117.92684 | 26988 ft | 469 kts | 244° |
| 2026-04-30 08:47 | -5.55977 | 117.89698 | 27233 ft | 471 kts | 244° |
| 2026-04-30 08:47 | -5.57342 | 117.86705 | 27465 ft | 473 kts | 245° |
| 2026-04-30 08:47 | -5.58715 | 117.83706 | 27705 ft | 474 kts | 244° |
| 2026-04-30 08:48 | -5.60097 | 117.80688 | 27928 ft | 476 kts | 244° |
| 2026-04-30 08:48 | -5.61474 | 117.77684 | 28128 ft | 477 kts | 245° |
| 2026-04-30 08:48 | -5.62859 | 117.74653 | 28331 ft | 479 kts | 245° |
| 2026-04-30 08:48 | -5.64250 | 117.71603 | 28536 ft | 480 kts | 245° |
| 2026-04-30 08:49 | -5.65637 | 117.68553 | 28735 ft | 482 kts | 245° |
| 2026-04-30 08:49 | -5.67035 | 117.65484 | 28930 ft | 483 kts | 245° |
| 2026-04-30 08:49 | -5.68432 | 117.62415 | 29141 ft | 484 kts | 245° |
| 2026-04-30 08:49 | -5.69833 | 117.59341 | 29341 ft | 485 kts | 245° |
| 2026-04-30 08:50 | -5.71241 | 117.56253 | 29529 ft | 487 kts | 245° |
| 2026-04-30 08:50 | -5.72658 | 117.53160 | 29758 ft | 487 kts | 245° |
| 2026-04-30 08:50 | -5.74072 | 117.50076 | 30034 ft | 486 kts | 245° |
| 2026-04-30 08:50 | -5.75483 | 117.46990 | 30302 ft | 486 kts | 245° |
| 2026-04-30 08:51 | -5.76885 | 117.43905 | 30576 ft | 485 kts | 245° |
| 2026-04-30 08:51 | -5.78279 | 117.40822 | 30846 ft | 485 kts | 245° |
| 2026-04-30 08:51 | -5.79677 | 117.37740 | 31114 ft | 484 kts | 245° |
| 2026-04-30 08:51 | -5.81073 | 117.34669 | 31369 ft | 484 kts | 245° |
| 2026-04-30 08:52 | -5.82475 | 117.31597 | 31622 ft | 484 kts | 245° |
| 2026-04-30 08:52 | -5.83876 | 117.28525 | 31891 ft | 483 kts | 245° |
| 2026-04-30 08:52 | -5.85277 | 117.25457 | 32160 ft | 483 kts | 245° |
| 2026-04-30 08:52 | -5.86675 | 117.22389 | 32412 ft | 483 kts | 246° |
| 2026-04-30 08:53 | -5.87986 | 117.19297 | 32679 ft | 481 kts | 251° |
| 2026-04-30 08:53 | -5.89064 | 117.16120 | 32926 ft | 481 kts | 252° |
| 2026-04-30 08:53 | -5.90143 | 117.12941 | 33175 ft | 480 kts | 252° |
| 2026-04-30 08:53 | -5.91227 | 117.09769 | 33442 ft | 480 kts | 252° |
| 2026-04-30 08:54 | -5.92314 | 117.06599 | 33703 ft | 479 kts | 252° |
| 2026-04-30 08:54 | -5.93399 | 117.03436 | 33970 ft | 479 kts | 252° |
| 2026-04-30 08:54 | -5.94478 | 117.00278 | 34243 ft | 478 kts | 252° |
| 2026-04-30 08:54 | -5.95554 | 116.97121 | 34507 ft | 477 kts | 252° |
| 2026-04-30 08:55 | -5.96625 | 116.93973 | 34763 ft | 476 kts | 252° |
| 2026-04-30 08:55 | -5.98772 | 116.87688 | 34861 ft | 475 kts | 252° |
| 2026-04-30 08:56 | -6.00914 | 116.81414 | 34862 ft | 474 kts | 252° |
| 2026-04-30 08:56 | -6.03052 | 116.75150 | 34859 ft | 474 kts | 252° |
| 2026-04-30 08:57 | -6.05188 | 116.68887 | 34859 ft | 474 kts | 252° |
| 2026-04-30 08:57 | -6.07320 | 116.62623 | 34857 ft | 474 kts | 252° |
| 2026-04-30 08:58 | -6.09453 | 116.56363 | 34856 ft | 474 kts | 252° |
| 2026-04-30 08:58 | -6.11585 | 116.50093 | 34858 ft | 474 kts | 252° |
| 2026-04-30 08:59 | -6.13714 | 116.43826 | 34859 ft | 474 kts | 252° |
| 2026-04-30 08:59 | -6.15853 | 116.37562 | 34861 ft | 474 kts | 252° |
| 2026-04-30 09:00 | -6.17989 | 116.31291 | 34860 ft | 474 kts | 252° |
| 2026-04-30 09:00 | -6.20129 | 116.25025 | 34864 ft | 475 kts | 252° |
| 2026-04-30 09:01 | -6.22278 | 116.18752 | 34862 ft | 475 kts | 252° |
| 2026-04-30 09:01 | -6.24430 | 116.12478 | 34863 ft | 475 kts | 252° |
| 2026-04-30 09:02 | -6.27648 | 116.03072 | 34858 ft | 474 kts | 252° |
| 2026-04-30 09:02 | -6.29786 | 115.96806 | 34857 ft | 474 kts | 252° |
| 2026-04-30 09:03 | -6.31909 | 115.90575 | 34857 ft | 475 kts | 252° |
| 2026-04-30 09:03 | -6.34066 | 115.84259 | 34862 ft | 474 kts | 252° |
| 2026-04-30 09:04 | -6.36193 | 115.78032 | 34875 ft | 474 kts | 252° |
| 2026-04-30 09:04 | -6.38331 | 115.71760 | 34877 ft | 474 kts | 252° |
| 2026-04-30 09:05 | -6.40471 | 115.65488 | 34879 ft | 474 kts | 252° |
| 2026-04-30 09:05 | -6.42609 | 115.59210 | 34877 ft | 474 kts | 252° |
| 2026-04-30 09:06 | -6.44740 | 115.52940 | 34877 ft | 473 kts | 252° |
| 2026-04-30 09:06 | -6.46879 | 115.46682 | 34881 ft | 473 kts | 252° |
| 2026-04-30 09:07 | -6.49016 | 115.40431 | 34873 ft | 472 kts | 252° |
| 2026-04-30 09:07 | -6.51137 | 115.34181 | 34871 ft | 472 kts | 252° |
| 2026-04-30 09:08 | -6.53256 | 115.27937 | 34865 ft | 472 kts | 252° |
| 2026-04-30 09:08 | -6.55379 | 115.21688 | 34865 ft | 472 kts | 252° |
| 2026-04-30 09:09 | -6.56560 | 115.15239 | 34864 ft | 469 kts | 270° |
| 2026-04-30 09:09 | -6.56149 | 115.08704 | 34859 ft | 468 kts | 276° |
| 2026-04-30 09:10 | -6.55654 | 115.02175 | 34855 ft | 469 kts | 275° |
| 2026-04-30 09:10 | -6.55168 | 114.95641 | 34854 ft | 469 kts | 275° |
| 2026-04-30 09:11 | -6.54680 | 114.89106 | 34849 ft | 468 kts | 275° |
| 2026-04-30 09:11 | -6.54183 | 114.82578 | 34846 ft | 468 kts | 275° |
| 2026-04-30 09:12 | -6.53683 | 114.76051 | 34844 ft | 469 kts | 275° |
| 2026-04-30 09:12 | -6.53184 | 114.69512 | 34845 ft | 469 kts | 275° |
| 2026-04-30 09:13 | -6.52683 | 114.62967 | 34851 ft | 469 kts | 275° |
| 2026-04-30 09:13 | -6.52184 | 114.56426 | 34855 ft | 469 kts | 275° |
| 2026-04-30 09:14 | -6.51681 | 114.49882 | 34857 ft | 469 kts | 275° |
| 2026-04-30 09:14 | -6.51261 | 114.44444 | 34858 ft | 469 kts | 275° |
| 2026-04-30 09:15 | -6.50758 | 114.37899 | 34858 ft | 470 kts | 275° |
| 2026-04-30 09:15 | -6.50258 | 114.31350 | 34858 ft | 470 kts | 275° |
| 2026-04-30 09:16 | -6.49665 | 114.23734 | 34858 ft | 470 kts | 275° |
| 2026-04-30 09:16 | -6.49236 | 114.18244 | 34864 ft | 470 kts | 275° |
| 2026-04-30 09:17 | -6.48729 | 114.11687 | 34867 ft | 471 kts | 275° |
| 2026-04-30 09:17 | -6.48220 | 114.05133 | 34867 ft | 470 kts | 275° |
| 2026-04-30 09:18 | -6.47706 | 113.98567 | 34870 ft | 471 kts | 275° |
| 2026-04-30 09:18 | -6.47185 | 113.92004 | 34869 ft | 471 kts | 275° |
| 2026-04-30 09:19 | -6.46680 | 113.85442 | 34868 ft | 471 kts | 273° |
| 2026-04-30 09:19 | -6.47342 | 113.78913 | 34864 ft | 472 kts | 257° |
| 2026-04-30 09:20 | -6.48810 | 113.72520 | 34747 ft | 473 kts | 258° |
| 2026-04-30 09:20 | -6.49542 | 113.69294 | 34114 ft | 475 kts | 258° |
| 2026-04-30 09:20 | -6.50278 | 113.66030 | 33080 ft | 482 kts | 258° |
| 2026-04-30 09:21 | -6.51018 | 113.62736 | 32113 ft | 486 kts | 257° |
| 2026-04-30 09:21 | -6.51769 | 113.59399 | 31028 ft | 492 kts | 257° |
| 2026-04-30 09:21 | -6.52529 | 113.56032 | 30036 ft | 495 kts | 257° |
| 2026-04-30 09:21 | -6.53287 | 113.52677 | 29431 ft | 489 kts | 257° |
| 2026-04-30 09:22 | -6.54039 | 113.49355 | 28728 ft | 485 kts | 257° |
| 2026-04-30 09:22 | -6.54782 | 113.46064 | 28048 ft | 481 kts | 257° |
| 2026-04-30 09:22 | -6.55521 | 113.42795 | 27372 ft | 476 kts | 256° |
| 2026-04-30 09:22 | -6.56252 | 113.39563 | 26711 ft | 472 kts | 256° |
| 2026-04-30 09:23 | -6.56978 | 113.36365 | 26048 ft | 468 kts | 256° |
| 2026-04-30 09:23 | -6.57701 | 113.33182 | 25410 ft | 465 kts | 257° |
| 2026-04-30 09:23 | -6.58415 | 113.30026 | 24770 ft | 461 kts | 257° |
| 2026-04-30 09:23 | -6.59120 | 113.26897 | 24133 ft | 457 kts | 257° |
| 2026-04-30 09:24 | -6.59818 | 113.23799 | 23520 ft | 452 kts | 257° |
| 2026-04-30 09:24 | -6.60511 | 113.20730 | 22948 ft | 448 kts | 257° |
| 2026-04-30 09:24 | -6.61196 | 113.17696 | 22403 ft | 442 kts | 257° |
| 2026-04-30 09:24 | -6.61875 | 113.14693 | 21887 ft | 437 kts | 257° |
| 2026-04-30 09:25 | -6.62544 | 113.11733 | 21384 ft | 432 kts | 257° |
| 2026-04-30 09:25 | -6.63206 | 113.08802 | 20895 ft | 427 kts | 257° |
| 2026-04-30 09:25 | -6.63860 | 113.05907 | 20403 ft | 423 kts | 257° |
| 2026-04-30 09:25 | -6.64509 | 113.03037 | 19905 ft | 419 kts | 257° |
| 2026-04-30 09:26 | -6.65150 | 113.00194 | 19410 ft | 415 kts | 257° |
| 2026-04-30 09:26 | -6.65785 | 112.97373 | 18902 ft | 411 kts | 257° |
| 2026-04-30 09:26 | -6.66414 | 112.94583 | 18394 ft | 408 kts | 257° |
| 2026-04-30 09:26 | -6.67038 | 112.91810 | 17876 ft | 405 kts | 257° |
| 2026-04-30 09:27 | -6.67657 | 112.89060 | 17360 ft | 402 kts | 257° |
| 2026-04-30 09:27 | -6.68273 | 112.86325 | 16835 ft | 400 kts | 257° |
| 2026-04-30 09:27 | -6.68887 | 112.83602 | 16316 ft | 397 kts | 257° |
| 2026-04-30 09:27 | -6.69494 | 112.80903 | 15798 ft | 395 kts | 257° |
| 2026-04-30 09:28 | -6.70098 | 112.78214 | 15275 ft | 393 kts | 257° |
| 2026-04-30 09:28 | -6.70699 | 112.75538 | 14747 ft | 391 kts | 257° |
| 2026-04-30 09:28 | -6.71297 | 112.72874 | 14224 ft | 389 kts | 257° |
| 2026-04-30 09:28 | -6.71889 | 112.70231 | 13697 ft | 387 kts | 257° |
| 2026-04-30 09:29 | -6.72480 | 112.67598 | 13171 ft | 384 kts | 257° |
| 2026-04-30 09:29 | -6.73058 | 112.65020 | 12644 ft | 382 kts | 257° |
| 2026-04-30 09:29 | -6.73647 | 112.62393 | 12195 ft | 377 kts | 257° |
| 2026-04-30 09:29 | -6.74211 | 112.59874 | 12069 ft | 362 kts | 256° |
| 2026-04-30 09:30 | -6.74757 | 112.57454 | 11937 ft | 348 kts | 256° |
| 2026-04-30 09:30 | -6.75286 | 112.55121 | 11807 ft | 337 kts | 256° |
| 2026-04-30 09:30 | -6.75795 | 112.52863 | 11677 ft | 326 kts | 256° |
| 2026-04-30 09:30 | -6.76340 | 112.50723 | 11553 ft | 315 kts | 247° |
| 2026-04-30 09:31 | -6.77530 | 112.48952 | 11429 ft | 301 kts | 220° |
| 2026-04-30 09:31 | -6.79300 | 112.47949 | 11298 ft | 288 kts | 193° |
| 2026-04-30 09:31 | -6.81255 | 112.47803 | 11047 ft | 281 kts | 172° |
| 2026-04-30 09:31 | -6.83198 | 112.48024 | 10671 ft | 280 kts | 172° |
| 2026-04-30 09:32 | -6.85126 | 112.48255 | 10195 ft | 279 kts | 172° |
| 2026-04-30 09:32 | -6.87073 | 112.48488 | 9725 ft | 278 kts | 172° |
| 2026-04-30 09:32 | -6.88966 | 112.48710 | 9296 ft | 275 kts | 172° |
| 2026-04-30 09:32 | -6.90881 | 112.48938 | 8897 ft | 273 kts | 172° |
| 2026-04-30 09:33 | -6.92744 | 112.49158 | 8520 ft | 274 kts | 172° |
| 2026-04-30 09:33 | -6.94636 | 112.49380 | 8143 ft | 274 kts | 172° |
| 2026-04-30 09:33 | -6.96545 | 112.49606 | 7804 ft | 271 kts | 172° |
| 2026-04-30 09:33 | -6.98394 | 112.49824 | 7471 ft | 270 kts | 172° |
| 2026-04-30 09:34 | -7.00271 | 112.50042 | 7208 ft | 266 kts | 173° |
| 2026-04-30 09:34 | -7.02075 | 112.50248 | 6979 ft | 263 kts | 173° |
| 2026-04-30 09:34 | -7.03909 | 112.50455 | 6750 ft | 261 kts | 172° |
| 2026-04-30 09:34 | -7.05711 | 112.50660 | 6526 ft | 260 kts | 173° |
| 2026-04-30 09:35 | -7.07484 | 112.50860 | 6304 ft | 260 kts | 173° |
| 2026-04-30 09:35 | -7.09304 | 112.51067 | 6073 ft | 259 kts | 173° |
| 2026-04-30 09:35 | -7.11073 | 112.51267 | 5866 ft | 259 kts | 173° |
| 2026-04-30 09:35 | -7.12880 | 112.51473 | 5630 ft | 258 kts | 172° |
| 2026-04-30 09:36 | -7.14634 | 112.51673 | 5403 ft | 257 kts | 173° |
| 2026-04-30 09:36 | -7.16406 | 112.51874 | 5196 ft | 255 kts | 173° |
| 2026-04-30 09:36 | -7.18190 | 112.52078 | 4968 ft | 254 kts | 172° |
| 2026-04-30 09:36 | -7.19923 | 112.52277 | 4754 ft | 254 kts | 173° |
| 2026-04-30 09:37 | -7.21676 | 112.52475 | 4534 ft | 253 kts | 173° |
| 2026-04-30 09:37 | -7.23444 | 112.52675 | 4314 ft | 252 kts | 173° |
| 2026-04-30 09:37 | -7.25158 | 112.52867 | 4101 ft | 251 kts | 173° |
| 2026-04-30 09:37 | -7.26885 | 112.53058 | 3929 ft | 246 kts | 173° |
| 2026-04-30 09:38 | -7.28549 | 112.53244 | 3834 ft | 237 kts | 173° |
| 2026-04-30 09:38 | -7.30175 | 112.53428 | 3733 ft | 234 kts | 173° |
| 2026-04-30 09:38 | -7.31788 | 112.53614 | 3628 ft | 233 kts | 171° |
| 2026-04-30 09:38 | -7.33298 | 112.54190 | 3525 ft | 230 kts | 139° |
| 2026-04-30 09:39 | -7.34184 | 112.55472 | 3514 ft | 229 kts | 106° |
| 2026-04-30 09:39 | -7.34489 | 112.57049 | 3516 ft | 231 kts | 98° |
| 2026-04-30 09:39 | -7.34728 | 112.58630 | 3514 ft | 218 kts | 99° |
| 2026-04-30 09:39 | -7.34963 | 112.60096 | 3361 ft | 213 kts | 99° |
| 2026-04-30 09:40 | -7.35204 | 112.61584 | 3094 ft | 212 kts | 99° |
| 2026-04-30 09:40 | -7.35442 | 112.63048 | 2819 ft | 211 kts | 99° |
| 2026-04-30 09:40 | -7.35676 | 112.64484 | 2539 ft | 204 kts | 99° |
| 2026-04-30 09:40 | -7.35899 | 112.65849 | 2298 ft | 191 kts | 98° |
| 2026-04-30 09:41 | -7.36108 | 112.67132 | 2051 ft | 179 kts | 98° |
| 2026-04-30 09:41 | -7.36297 | 112.68303 | 1812 ft | 167 kts | 98° |
| 2026-04-30 09:41 | -7.36498 | 112.69535 | 1608 ft | 173 kts | 98° |
| 2026-04-30 09:41 | -7.36680 | 112.70655 | 1361 ft | 157 kts | 98° |
| 2026-04-30 09:42 | -7.36853 | 112.71718 | 1153 ft | 151 kts | 98° |
| 2026-04-30 09:42 | -7.37021 | 112.72750 | 955 ft | 149 kts | 98° |
| 2026-04-30 09:42 | -7.37189 | 112.73783 | 759 ft | 147 kts | 98° |
| 2026-04-30 09:42 | -7.37352 | 112.74788 | 574 ft | 147 kts | 98° |
| 2026-04-30 09:43 | -7.37516 | 112.75801 | 372 ft | 146 kts | 98° |
| 2026-04-30 09:43 | -7.37681 | 112.76815 | 180 ft | 146 kts | 98° |
| 2026-04-30 09:43 | -7.37839 | 112.77824 | 32 ft | 145 kts | 99° |
| 2026-04-30 09:43 | -7.37987 | 112.78736 | 10 ft | 110 kts | 99° |
| 2026-04-30 09:44 | -7.38083 | 112.79323 | 10 ft | 60 kts | 99° |
| 2026-04-30 09:44 | -7.38113 | 112.79528 | 10 ft | 19 kts | 95° |
| 2026-04-30 09:44 | -7.38090 | 112.79647 | 9 ft | 13 kts | 69° |
| 2026-04-30 09:44 | -7.38055 | 112.79733 | 9 ft | 13 kts | 61° |
| 2026-04-30 09:45 | -7.37992 | 112.79774 | 9 ft | 9 kts | 14° |
| 2026-04-30 09:45 | -7.37937 | 112.79784 | 9 ft | 7 kts | 8° |
| 2026-04-30 09:45 | -7.37892 | 112.79791 | 9 ft | 6 kts | 8° |
| 2026-04-30 09:45 | -7.37843 | 112.79799 | 9 ft | 9 kts | 9° |
| 2026-04-30 09:46 | -7.37786 | 112.79808 | 11 ft | 8 kts | 9° |
| 2026-04-30 09:46 | -7.37741 | 112.79802 | 9 ft | 6 kts | 312° |
| 2026-04-30 09:46 | -7.37725 | 112.79762 | 9 ft | 6 kts | 298° |
| 2026-04-30 09:46 | -7.37694 | 112.79754 | 9 ft | 4 kts | 1° |
| 2026-04-30 09:47 | -7.37666 | 112.79757 | 9 ft | 4 kts | 11° |
| 2026-04-30 09:47 | -7.37643 | 112.79761 | 9 ft | 3 kts | 9° |
| 2026-04-30 09:47 | -7.37635 | 112.79763 | 9 ft | 0 kts | 9° |